Time;durP1;ratioP1;P1;durP2;ratioP2;P2;SDS_P1;SDS_P2;PMS_P1;PMS_P2;Temp;Humidity;BMP_temperature;BMP_pressure;BME280_temperature;BME280_humidity;BME280_pressure;Samples;Min_cycle;Max_cycle;Signal;HPM_P1;HPM_P2
2023/10/23 00:00:23;;;;;;;;;;;10.20;99.90;;;;;;5011976;28;20028;-70
2023/10/23 00:02:49;;;;;;;;;;;10.20;99.90;;;;;;5011807;28;20376;-70
2023/10/23 00:05:16;;;;;;;;;;;10.10;99.90;;;;;;5012010;28;19980;-70
2023/10/23 00:07:42;;;;;;;;;;;10.10;99.90;;;;;;5011296;28;19971;-70
2023/10/23 00:10:11;;;;;;;;;;;10.10;99.90;;;;;;5011752;28;19934;-70
2023/10/23 00:12:37;;;;;;;;;;;10.10;99.90;;;;;;5009903;28;19933;-70
2023/10/23 00:15:04;;;;;;;;;;;10.00;99.90;;;;;;5011770;28;19933;-70
2023/10/23 00:17:30;;;;;;;;;;;10.00;99.90;;;;;;5011207;28;19975;-70
2023/10/23 00:19:57;;;;;;;;;;;10.00;99.90;;;;;;5011415;28;20285;-71
2023/10/23 00:22:23;;;;;;;;;;;10.00;99.90;;;;;;5011206;28;19925;-70
2023/10/23 00:24:50;;;;;;;;;;;9.90;99.90;;;;;;5011804;28;19925;-70
2023/10/23 00:27:18;;;;;;;;;;;9.90;99.90;;;;;;5011467;28;19929;-70
2023/10/23 00:29:44;;;;;;;;;;;9.90;99.90;;;;;;5011339;28;19984;-70
2023/10/23 00:32:11;;;;;;;;;;;9.90;99.90;;;;;;5010695;28;20387;-70
2023/10/23 00:34:37;;;;;;;;;;;9.90;99.90;;;;;;5011784;28;19929;-70
2023/10/23 00:37:04;;;;;;;;;;;9.80;99.90;;;;;;5010846;28;19999;-71
2023/10/23 00:39:30;;;;;;;;;;;9.80;99.90;;;;;;5011746;28;19960;-70
2023/10/23 00:41:57;;;;;;;;;;;9.70;99.90;;;;;;5011507;28;19925;-70
2023/10/23 00:44:25;;;;;;;;;;;9.70;99.90;;;;;;5014457;28;19933;-70
2023/10/23 00:46:51;;;;;;;;;;;9.70;99.90;;;;;;5014682;28;19929;-70
2023/10/23 00:49:18;;;;;;;;;;;9.60;99.90;;;;;;5015122;28;19980;-71
2023/10/23 00:51:45;;;;;;;;;;;9.60;99.90;;;;;;5015506;28;19926;-70
2023/10/23 00:54:11;;;;;;;;;;;9.50;99.90;;;;;;5015564;28;19972;-70
2023/10/23 00:56:38;;;;;;;;;;;9.50;99.90;;;;;;5014825;28;19937;-70
2023/10/23 00:59:05;;;;;;;;;;;9.50;99.90;;;;;;5014338;28;20461;-70
2023/10/23 01:01:33;;;;;;;;;;;9.50;99.90;;;;;;5015029;28;20354;-70
2023/10/23 01:04:00;;;;;;;;;;;9.40;99.90;;;;;;5015015;28;19929;-70
2023/10/23 01:06:27;;;;;;;;;;;9.40;99.90;;;;;;5015211;28;20012;-70
2023/10/23 01:08:53;;;;;;;;;;;9.40;99.90;;;;;;5015076;28;19926;-70
2023/10/23 01:11:20;;;;;;;;;;;9.40;99.90;;;;;;5015058;28;20023;-69
2023/10/23 01:13:46;;;;;;;;;;;9.40;99.90;;;;;;5015034;28;19930;-70
2023/10/23 01:16:13;;;;;;;;;;;9.40;99.90;;;;;;5013848;28;20346;-70
2023/10/23 01:18:41;;;;;;;;;;;9.50;99.90;;;;;;5014257;28;19933;-70
2023/10/23 01:21:07;;;;;;;;;;;9.50;99.90;;;;;;5015098;28;19929;-69
2023/10/23 01:23:36;;;;;;;;;;;9.50;99.90;;;;;;5014658;28;19929;-70
2023/10/23 01:26:04;;;;;;;;;;;9.50;99.90;;;;;;5014810;28;19936;-70
2023/10/23 01:28:30;;;;;;;;;;;9.50;99.90;;;;;;5014530;28;19934;-70
2023/10/23 01:30:57;;;;;;;;;;;9.50;99.90;;;;;;5014403;28;19926;-70
2023/10/23 01:33:23;;;;;;;;;;;9.50;99.90;;;;;;5014477;28;20387;-70
2023/10/23 01:35:50;;;;;;;;;;;9.60;99.90;;;;;;5014437;28;19925;-70
2023/10/23 01:38:16;;;;;;;;;;;9.60;99.90;;;;;;5014322;28;19929;-70
2023/10/23 01:40:43;;;;;;;;;;;9.60;99.90;;;;;;5014672;28;19925;-70
2023/10/23 01:43:11;;;;;;;;;;;9.60;99.90;;;;;;5014354;28;19929;-70
2023/10/23 01:45:37;;;;;;;;;;;9.60;99.90;;;;;;5013350;28;20391;-70
2023/10/23 01:48:04;;;;;;;;;;;9.70;99.90;;;;;;5013864;28;19930;-71
2023/10/23 01:50:30;;;;;;;;;;;9.60;99.90;;;;;;5014464;28;20400;-70
2023/10/23 01:52:57;;;;;;;;;;;9.60;99.90;;;;;;5013985;28;20033;-70
2023/10/23 01:55:23;;;;;;;;;;;9.60;99.90;;;;;;5013996;28;19937;-70
2023/10/23 01:57:50;;;;;;;;;;;9.50;99.90;;;;;;5013504;28;19980;-70
2023/10/23 02:00:18;;;;;;;;;;;9.40;99.90;;;;;;5013559;28;19925;-70
2023/10/23 02:02:44;;;;;;;;;;;9.40;99.90;;;;;;5013091;28;19930;-70
2023/10/23 02:05:11;;;;;;;;;;;9.40;99.90;;;;;;5014149;28;20465;-70
2023/10/23 02:07:37;;;;;;;;;;;9.30;99.90;;;;;;5013698;28;19980;-70
2023/10/23 02:10:04;;;;;;;;;;;9.30;99.90;;;;;;5013930;28;20535;-70
2023/10/23 02:12:32;;;;;;;;;;;9.40;99.90;;;;;;5013511;28;19960;-71
2023/10/23 02:14:58;;;;;;;;;;;9.40;99.90;;;;;;5013900;28;19980;-70
2023/10/23 02:17:26;;;;;;;;;;;9.30;99.90;;;;;;5013523;28;19933;-70
2023/10/23 02:19:53;;;;;;;;;;;9.30;99.90;;;;;;5013809;28;19926;-70
2023/10/23 02:22:19;;;;;;;;;;;9.30;99.90;;;;;;5013796;28;19971;-70
2023/10/23 02:24:46;;;;;;;;;;;9.30;99.90;;;;;;5013448;28;20343;-70
2023/10/23 02:27:13;;;;;;;;;;;9.30;99.90;;;;;;5013490;28;19988;-70
2023/10/23 02:29:40;;;;;;;;;;;9.30;99.90;;;;;;5013437;28;19929;-70
2023/10/23 02:32:07;;;;;;;;;;;9.30;99.90;;;;;;5013463;28;19933;-70
2023/10/23 02:34:35;;;;;;;;;;;9.30;99.90;;;;;;5013520;28;19926;-70
2023/10/23 02:37:02;;;;;;;;;;;9.30;99.90;;;;;;5013233;28;20031;-70
2023/10/23 02:39:29;;;;;;;;;;;9.30;99.90;;;;;;5012828;28;20339;-70
2023/10/23 02:41:55;;;;;;;;;;;9.30;99.90;;;;;;5013003;28;19925;-70
2023/10/23 02:44:22;;;;;;;;;;;9.30;99.90;;;;;;5013529;28;19979;-70
2023/10/23 02:46:48;;;;;;;;;;;9.20;99.90;;;;;;5012933;28;19926;-71
2023/10/23 02:49:15;;;;;;;;;;;9.20;99.90;;;;;;5012910;28;19972;-70
2023/10/23 02:51:43;;;;;;;;;;;9.10;99.90;;;;;;5012971;28;20020;-70
2023/10/23 02:54:10;;;;;;;;;;;9.00;99.90;;;;;;5013338;28;19967;-70
2023/10/23 02:56:36;;;;;;;;;;;8.90;99.90;;;;;;5012702;28;19988;-71
2023/10/23 02:59:03;;;;;;;;;;;8.90;99.90;;;;;;5013318;28;19932;-70
2023/10/23 03:01:30;;;;;;;;;;;8.80;99.90;;;;;;5012476;28;19979;-70
2023/10/23 03:03:57;;;;;;;;;;;8.80;99.90;;;;;;5012880;28;19929;-70
2023/10/23 03:06:23;;;;;;;;;;;8.60;99.90;;;;;;5011754;28;19925;-70
2023/10/23 03:08:51;;;;;;;;;;;8.50;99.90;;;;;;5012909;28;19972;-70
2023/10/23 03:11:17;;;;;;;;;;;8.50;99.90;;;;;;5012994;28;19933;-70
2023/10/23 03:13:44;;;;;;;;;;;8.40;99.90;;;;;;5012811;28;20040;-70
2023/10/23 03:16:13;;;;;;;;;;;8.40;99.90;;;;;;5012165;28;20347;-70
2023/10/23 03:18:39;;;;;;;;;;;8.30;99.90;;;;;;5012819;28;19929;-70
2023/10/23 03:21:06;;;;;;;;;;;8.30;99.90;;;;;;5012499;28;19956;-70
2023/10/23 03:23:33;;;;;;;;;;;8.20;99.90;;;;;;5012596;28;19933;-71
2023/10/23 03:26:02;;;;;;;;;;;8.20;99.90;;;;;;5012547;28;19930;-70
2023/10/23 03:28:29;;;;;;;;;;;8.20;99.90;;;;;;5012393;28;19964;-70
2023/10/23 03:30:55;;;;;;;;;;;8.20;99.90;;;;;;5012425;28;19987;-70
2023/10/23 03:33:22;;;;;;;;;;;8.20;99.90;;;;;;5012815;28;19979;-71
2023/10/23 03:35:48;;;;;;;;;;;8.20;99.90;;;;;;5012409;28;20441;-71
2023/10/23 03:38:15;;;;;;;;;;;8.10;99.90;;;;;;5011803;28;19929;-70
2023/10/23 03:40:41;;;;;;;;;;;8.00;99.90;;;;;;5012476;28;20360;-70
2023/10/23 03:43:09;;;;;;;;;;;7.90;99.90;;;;;;5012318;28;19925;-70
2023/10/23 03:45:36;;;;;;;;;;;7.90;99.90;;;;;;5011809;28;19925;-70
2023/10/23 03:48:03;;;;;;;;;;;7.90;99.90;;;;;;5011924;28;19932;-70
2023/10/23 03:50:30;;;;;;;;;;;7.90;99.90;;;;;;5011885;28;19933;-70
2023/10/23 03:52:58;;;;;;;;;;;7.80;99.90;;;;;;5010851;28;21298;-70
2023/10/23 03:55:25;;;;;;;;;;;7.80;99.90;;;;;;5011952;28;19932;-70
2023/10/23 03:57:51;;;;;;;;;;;7.80;99.90;;;;;;5012068;28;19929;-70
2023/10/23 04:00:19;;;;;;;;;;;7.80;99.90;;;;;;5012037;28;20331;-70
2023/10/23 04:02:46;;;;;;;;;;;7.80;99.90;;;;;;5011819;28;20292;-71
2023/10/23 04:05:13;;;;;;;;;;;7.80;99.90;;;;;;5011646;28;19925;-71
2023/10/23 04:07:39;;;;;;;;;;;7.80;99.90;;;;;;5011616;28;19933;-70
2023/10/23 04:10:07;;;;;;;;;;;7.70;99.90;;;;;;5012029;28;19925;-70
2023/10/23 04:12:33;;;;;;;;;;;7.70;99.90;;;;;;5011418;28;20029;-70
2023/10/23 04:14:59;;;;;;;;;;;7.70;99.90;;;;;;5011662;28;19925;-70
2023/10/23 04:17:27;;;;;;;;;;;7.60;99.90;;;;;;5011026;28;19925;-70
2023/10/23 04:19:54;;;;;;;;;;;7.60;99.90;;;;;;5011592;28;19925;-71
2023/10/23 04:22:20;;;;;;;;;;;7.60;99.90;;;;;;5011809;28;19979;-70
2023/10/23 04:24:47;;;;;;;;;;;7.50;99.90;;;;;;5011460;28;19930;-70
2023/10/23 04:27:13;;;;;;;;;;;7.50;99.90;;;;;;5011457;28;19932;-70
2023/10/23 04:29:40;;;;;;;;;;;7.50;99.90;;;;;;5011494;28;19979;-70
2023/10/23 04:32:06;;;;;;;;;;;7.40;99.90;;;;;;5010995;28;19926;-71
2023/10/23 04:34:34;;;;;;;;;;;7.40;99.90;;;;;;5010326;28;20052;-70
2023/10/23 04:37:01;;;;;;;;;;;7.40;99.90;;;;;;5011567;28;19925;-70
2023/10/23 04:39:27;;;;;;;;;;;7.40;99.90;;;;;;5011230;28;19929;-70
2023/10/23 04:41:54;;;;;;;;;;;7.40;99.90;;;;;;5011494;28;19984;-70
2023/10/23 04:44:21;;;;;;;;;;;7.30;99.90;;;;;;5011076;28;20362;-70
2023/10/23 04:46:47;;;;;;;;;;;7.30;99.90;;;;;;5010616;28;19929;-70
2023/10/23 04:49:14;;;;;;;;;;;7.20;99.90;;;;;;5011193;28;20304;-70
2023/10/23 04:51:41;;;;;;;;;;;7.20;99.90;;;;;;5011620;28;19926;-70
2023/10/23 04:54:08;;;;;;;;;;;7.10;99.90;;;;;;5011012;28;20343;-70
2023/10/23 04:56:34;;;;;;;;;;;7.10;99.90;;;;;;5010577;28;20002;-70
2023/10/23 04:59:01;;;;;;;;;;;7.10;99.90;;;;;;5011340;28;20350;-70
2023/10/23 05:01:27;;;;;;;;;;;7.00;99.90;;;;;;5010155;28;19929;-70
2023/10/23 05:03:54;;;;;;;;;;;7.00;99.90;;;;;;5011514;28;19925;-70
2023/10/23 05:06:24;;;;;;;;;;;6.90;99.90;;;;;;5010319;28;19926;-70
2023/10/23 05:08:52;;;;;;;;;;;6.90;99.90;;;;;;5011172;28;19932;-71
2023/10/23 05:11:18;;;;;;;;;;;6.90;99.90;;;;;;5010650;28;19988;-70
2023/10/23 05:13:46;;;;;;;;;;;6.90;99.90;;;;;;5010984;28;19926;-70
2023/10/23 05:16:13;;;;;;;;;;;6.90;99.90;;;;;;5010135;28;19936;-70
2023/10/23 05:18:40;;;;;;;;;;;6.80;99.90;;;;;;5010597;28;19925;-70
2023/10/23 05:21:06;;;;;;;;;;;6.80;99.90;;;;;;5010757;28;19976;-70
2023/10/23 05:23:33;;;;;;;;;;;6.90;99.90;;;;;;5011093;28;19949;-70
2023/10/23 05:26:01;;;;;;;;;;;6.90;99.90;;;;;;5010697;28;20402;-71
2023/10/23 05:28:27;;;;;;;;;;;6.90;99.90;;;;;;5010139;28;19933;-70
2023/10/23 05:30:54;;;;;;;;;;;6.90;99.90;;;;;;5013873;28;19999;-70
2023/10/23 05:33:20;;;;;;;;;;;7.00;99.90;;;;;;5014290;28;19977;-70
2023/10/23 05:35:47;;;;;;;;;;;7.00;99.90;;;;;;5014527;28;20307;-70
2023/10/23 05:38:14;;;;;;;;;;;7.10;99.90;;;;;;5014168;28;19926;-70
2023/10/23 05:40:40;;;;;;;;;;;7.10;99.90;;;;;;5014138;28;19926;-70
2023/10/23 05:43:08;;;;;;;;;;;7.00;99.90;;;;;;5013590;28;19979;-69
2023/10/23 05:45:37;;;;;;;;;;;7.20;99.90;;;;;;5012781;28;20376;-69
2023/10/23 05:48:03;;;;;;;;;;;7.30;99.90;;;;;;5011762;28;19936;-69
2023/10/23 05:50:30;;;;;;;;;;;7.30;99.90;;;;;;5012576;28;19932;-69
2023/10/23 05:52:56;;;;;;;;;;;7.40;99.90;;;;;;5010637;28;19937;-69
2023/10/23 05:55:23;;;;;;;;;;;7.40;99.90;;;;;;5009812;28;19943;-69
2023/10/23 05:57:50;;;;;;;;;;;7.40;99.90;;;;;;5009923;28;20418;-69
2023/10/23 06:00:18;;;;;;;;;;;7.50;99.90;;;;;;5010183;28;19933;-69
2023/10/23 06:02:45;;;;;;;;;;;7.50;99.90;;;;;;5009945;28;19934;-71
2023/10/23 06:05:11;;;;;;;;;;;7.60;99.90;;;;;;5009998;28;19933;-71
2023/10/23 06:07:38;;;;;;;;;;;7.90;99.90;;;;;;5009426;28;19925;-71
2023/10/23 06:10:05;;;;;;;;;;;8.50;99.90;;;;;;5010168;28;19934;-71
2023/10/23 06:12:31;;;;;;;;;;;9.00;99.90;;;;;;5009540;28;20407;-71
2023/10/23 06:14:58;;;;;;;;;;;9.40;99.90;;;;;;5010345;28;19925;-71
2023/10/23 06:17:26;;;;;;;;;;;9.60;99.90;;;;;;5009648;28;20288;-71
2023/10/23 06:19:53;;;;;;;;;;;9.70;99.90;;;;;;5009531;28;19955;-71
2023/10/23 06:22:19;;;;;;;;;;;9.70;99.90;;;;;;5010012;28;19930;-71
2023/10/23 06:24:46;;;;;;;;;;;9.90;99.90;;;;;;5009328;28;20659;-71
2023/10/23 06:27:12;;;;;;;;;;;9.90;99.90;;;;;;5009063;28;19937;-71
2023/10/23 06:29:39;;;;;;;;;;;9.90;99.90;;;;;;5009592;28;19975;-72
2023/10/23 06:32:06;;;;;;;;;;;9.90;99.90;;;;;;5009455;28;19972;-72
2023/10/23 06:34:34;;;;;;;;;;;9.90;99.90;;;;;;5009631;28;19995;-72
2023/10/23 06:37:00;;;;;;;;;;;9.70;99.90;;;;;;5008906;28;19925;-72
2023/10/23 06:39:27;;;;;;;;;;;9.60;99.90;;;;;;5008466;28;19926;-72
2023/10/23 06:41:53;;;;;;;;;;;9.50;99.90;;;;;;5008912;28;19964;-72
2023/10/23 06:44:20;;;;;;;;;;;9.60;99.90;;;;;;5009277;28;19975;-69
2023/10/23 06:46:46;;;;;;;;;;;9.60;99.90;;;;;;5008432;28;19940;-70
2023/10/23 06:49:12;;;;;;;;;;;9.50;99.90;;;;;;5009005;28;19937;-70
2023/10/23 06:51:41;;;;;;;;;;;9.20;99.90;;;;;;5008437;28;19929;-70
2023/10/23 06:54:07;;;;;;;;;;;9.00;99.90;;;;;;5009094;28;19925;-69
2023/10/23 06:56:34;;;;;;;;;;;8.90;99.90;;;;;;5008747;28;19987;-69
2023/10/23 06:59:00;;;;;;;;;;;8.70;99.90;;;;;;5009593;28;20336;-70
2023/10/23 07:01:27;;;;;;;;;;;8.60;99.90;;;;;;5008859;28;19934;-69
2023/10/23 07:03:53;;;;;;;;;;;8.40;99.90;;;;;;5008771;28;21119;-69
2023/10/23 07:06:20;;;;;;;;;;;8.40;99.90;;;;;;5008258;28;19929;-69
2023/10/23 07:08:48;;;;;;;;;;;8.30;99.90;;;;;;5008463;28;19976;-69
2023/10/23 07:11:15;;;;;;;;;;;8.30;99.90;;;;;;5009171;28;19964;-69
2023/10/23 07:13:41;;;;;;;;;;;8.30;99.90;;;;;;5008096;28;20072;-69
2023/10/23 07:16:08;;;;;;;;;;;8.40;99.90;;;;;;5007862;28;19926;-70
2023/10/23 07:18:35;;;;;;;;;;;8.30;99.90;;;;;;5008334;28;20040;-70
2023/10/23 07:21:02;;;;;;;;;;;8.30;99.90;;;;;;5008193;28;19926;-70
2023/10/23 07:23:29;;;;;;;;;;;8.40;99.90;;;;;;5008109;28;20036;-69
2023/10/23 07:26:02;;;;;;;;;;;8.40;99.90;;;;;;5009010;28;19925;-70
2023/10/23 07:28:29;;;;;;;;;;;8.50;99.90;;;;;;5008705;28;19940;-69
2023/10/23 07:30:55;;;;;;;;;;;8.60;99.90;;;;;;5008554;28;20399;-70
2023/10/23 07:33:22;;;;;;;;;;;8.70;99.90;;;;;;5008372;28;19937;-70
2023/10/23 07:35:48;;;;;;;;;;;8.70;99.90;;;;;;5008138;28;19929;-70
2023/10/23 07:38:15;;;;;;;;;;;8.80;99.90;;;;;;5008236;28;20285;-70
2023/10/23 07:40:44;;;;;;;;;;;8.80;99.90;;;;;;5008456;28;19925;-70
2023/10/23 07:43:12;;;;;;;;;;;8.80;99.90;;;;;;5008746;28;20410;-69
2023/10/23 07:45:39;;;;;;;;;;;8.80;99.90;;;;;;5008451;28;19941;-70
2023/10/23 07:48:05;;;;;;;;;;;8.80;99.90;;;;;;5007892;28;19925;-70
2023/10/23 07:50:32;;;;;;;;;;;8.90;99.90;;;;;;5007844;28;19933;-70
2023/10/23 07:52:59;;;;;;;;;;;8.90;99.90;;;;;;5008714;28;19933;-70
2023/10/23 07:55:25;;;;;;;;;;;9.00;99.90;;;;;;5008437;28;20416;-69
2023/10/23 07:57:52;;;;;;;;;;;9.00;99.90;;;;;;5008182;28;19937;-69
2023/10/23 08:00:20;;;;;;;;;;;9.10;99.90;;;;;;5007824;28;20327;-69
2023/10/23 08:02:46;;;;;;;;;;;9.10;99.90;;;;;;5008442;28;19940;-69
2023/10/23 08:05:13;;;;;;;;;;;9.10;99.90;;;;;;5008399;28;19929;-69
2023/10/23 08:07:39;;;;;;;;;;;9.20;99.90;;;;;;5008148;28;20421;-69
2023/10/23 08:10:06;;;;;;;;;;;9.20;99.90;;;;;;5008316;28;19933;-68
2023/10/23 08:12:33;;;;;;;;;;;9.20;99.90;;;;;;5007960;28;19936;-68
2023/10/23 08:14:59;;;;;;;;;;;9.40;99.90;;;;;;5008572;28;19949;-68
2023/10/23 08:17:27;;;;;;;;;;;9.40;99.90;;;;;;5007260;28;19937;-69
2023/10/23 08:19:54;;;;;;;;;;;9.50;99.90;;;;;;5008781;28;19925;-68
2023/10/23 08:22:20;;;;;;;;;;;9.60;99.90;;;;;;5008423;28;19988;-68
2023/10/23 08:24:47;;;;;;;;;;;9.60;99.90;;;;;;5007372;28;20387;-69
2023/10/23 08:27:13;;;;;;;;;;;9.70;99.90;;;;;;5008560;28;19964;-69
2023/10/23 08:29:40;;;;;;;;;;;9.80;99.90;;;;;;5007945;28;19933;-69
2023/10/23 08:32:06;;;;;;;;;;;9.80;99.90;;;;;;5007312;28;19934;-68
2023/10/23 08:34:34;;;;;;;;;;;9.80;99.90;;;;;;5008266;28;19925;-68
2023/10/23 08:37:00;;;;;;;;;;;9.90;99.90;;;;;;5007622;28;19937;-69
2023/10/23 08:39:27;;;;;;;;;;;10.00;99.90;;;;;;5007913;28;19999;-68
2023/10/23 08:41:54;;;;;;;;;;;10.10;99.90;;;;;;5008000;28;19987;-68
2023/10/23 08:44:21;;;;;;;;;;;10.20;99.90;;;;;;5007788;28;19934;-68
2023/10/23 08:46:48;;;;;;;;;;;10.20;99.90;;;;;;5007150;28;19925;-69
2023/10/23 08:49:15;;;;;;;;;;;10.30;99.90;;;;;;5008142;28;19933;-68
2023/10/23 08:51:43;;;;;;;;;;;10.30;99.90;;;;;;5007900;28;19978;-68
2023/10/23 08:54:13;;;;;;;;;;;10.40;99.90;;;;;;5007922;28;19937;-69
2023/10/23 08:56:42;;;;;;;;;;;10.60;99.90;;;;;;5007745;28;19933;-70
2023/10/23 08:59:09;;;;;;;;;;;10.60;99.90;;;;;;5007840;28;19926;-69
2023/10/23 09:01:36;;;;;;;;;;;10.70;99.90;;;;;;5007122;28;19972;-69
2023/10/23 09:04:03;;;;;;;;;;;10.90;99.90;;;;;;5009478;28;20023;-69
2023/10/23 09:06:30;;;;;;;;;;;11.00;99.90;;;;;;5011594;28;19987;-69
2023/10/23 09:08:58;;;;;;;;;;;11.00;99.90;;;;;;5011822;28;19933;-69
2023/10/23 09:11:37;;;;;;;;;;;11.00;99.90;;;;;;5011554;28;20454;-69
2023/10/23 09:14:04;;;;;;;;;;;11.10;99.90;;;;;;5011686;28;19929;-69
2023/10/23 09:16:30;;;;;;;;;;;11.10;99.90;;;;;;5011164;28;19930;-69
2023/10/23 09:18:57;;;;;;;;;;;11.00;99.90;;;;;;5011285;28;19933;-69
2023/10/23 09:21:23;;;;;;;;;;;11.00;99.90;;;;;;5011144;28;19925;-69
2023/10/23 09:23:50;;;;;;;;;;;11.00;99.90;;;;;;5011342;28;19971;-69
2023/10/23 09:26:18;;;;;;;;;;;10.90;99.90;;;;;;5010642;28;19956;-69
2023/10/23 09:28:45;;;;;;;;;;;10.90;99.90;;;;;;5010909;28;19980;-69
2023/10/23 09:31:12;;;;;;;;;;;10.80;99.90;;;;;;5010969;28;19979;-69
2023/10/23 09:33:38;;;;;;;;;;;10.90;99.90;;;;;;5011618;28;19968;-69
2023/10/23 09:36:07;;;;;;;;;;;11.00;99.90;;;;;;5011082;28;19933;-69
2023/10/23 09:38:35;;;;;;;;;;;11.10;99.90;;;;;;5010567;28;19980;-69
2023/10/23 09:41:01;;;;;;;;;;;11.10;99.90;;;;;;5011674;28;19996;-69
2023/10/23 09:43:29;;;;;;;;;;;11.20;99.90;;;;;;5010889;28;20347;-69
2023/10/23 09:45:57;;;;;;;;;;;11.30;99.90;;;;;;5010716;28;19937;-69
2023/10/23 09:48:24;;;;;;;;;;;11.30;99.90;;;;;;5010591;28;19934;-69
2023/10/23 09:50:51;;;;;;;;;;;11.40;99.90;;;;;;5010224;28;19980;-69
2023/10/23 09:53:17;;;;;;;;;;;11.50;99.90;;;;;;5009354;28;19933;-69
2023/10/23 09:55:45;;;;;;;;;;;11.60;99.90;;;;;;5009970;28;19957;-69
2023/10/23 09:58:13;;;;;;;;;;;11.80;99.90;;;;;;5010256;28;20012;-69
2023/10/23 10:00:44;;;;;;;;;;;12.00;99.90;;;;;;5009996;28;20008;-69
2023/10/23 10:03:12;;;;;;;;;;;12.20;99.90;;;;;;5010382;28;19975;-69
2023/10/23 10:05:45;;;;;;;;;;;12.40;99.90;;;;;;5010215;28;19982;-69
2023/10/23 10:08:14;;;;;;;;;;;12.70;99.90;;;;;;5010796;28;19969;-69
2023/10/23 10:10:41;;;;;;;;;;;12.80;99.90;;;;;;5010486;28;19925;-69
2023/10/23 10:13:08;;;;;;;;;;;12.90;99.90;;;;;;5010785;28;20399;-70
2023/10/23 10:15:34;;;;;;;;;;;13.10;99.90;;;;;;5010340;28;19940;-69
2023/10/23 10:18:03;;;;;;;;;;;13.30;99.90;;;;;;5010045;28;19934;-69
2023/10/23 10:20:30;;;;;;;;;;;13.40;99.90;;;;;;5009711;28;20392;-69
2023/10/23 10:22:59;;;;;;;;;;;13.40;99.90;;;;;;5010376;28;19925;-69
2023/10/23 10:25:26;;;;;;;;;;;13.30;99.90;;;;;;5010276;28;19988;-69
2023/10/23 10:27:56;;;;;;;;;;;13.20;99.90;;;;;;5009932;28;19933;-69
2023/10/23 10:30:40;;;;;;;;;;;13.20;99.90;;;;;;5009769;28;21130;-70
2023/10/23 10:33:09;;;;;;;;;;;13.20;99.90;;;;;;5010170;28;19932;-69
2023/10/23 10:35:36;;;;;;;;;;;13.20;99.90;;;;;;5010398;28;20280;-69
2023/10/23 10:38:03;;;;;;;;;;;13.30;99.90;;;;;;5009921;28;19968;-69
2023/10/23 10:40:53;;;;;;;;;;;13.50;99.90;;;;;;5009553;28;19933;-70
2023/10/23 10:43:21;;;;;;;;;;;13.60;99.90;;;;;;5009702;28;19933;-70
2023/10/23 10:45:48;;;;;;;;;;;13.80;99.90;;;;;;5009822;28;19964;-69
2023/10/23 10:48:16;;;;;;;;;;;13.90;99.90;;;;;;5009026;28;19980;-69
2023/10/23 10:50:42;;;;;;;;;;;14.00;99.90;;;;;;5008651;28;20384;-69
2023/10/23 10:53:13;;;;;;;;;;;14.00;99.90;;;;;;5009547;28;19941;-69
2023/10/23 10:55:40;;;;;;;;;;;14.10;99.90;;;;;;5009616;28;19979;-69
2023/10/23 10:58:07;;;;;;;;;;;14.00;99.90;;;;;;5009555;28;20355;-69
2023/10/23 11:00:35;;;;;;;;;;;14.00;99.90;;;;;;5009288;28;19984;-69
2023/10/23 11:03:02;;;;;;;;;;;14.10;99.90;;;;;;5009833;28;19934;-69
2023/10/23 11:05:31;;;;;;;;;;;14.20;99.90;;;;;;5009406;28;19932;-69
2023/10/23 11:07:58;;;;;;;;;;;14.20;99.90;;;;;;5009091;28;19933;-69
2023/10/23 11:10:24;;;;;;;;;;;14.10;99.90;;;;;;5008949;28;19933;-69
2023/10/23 11:12:51;;;;;;;;;;;14.10;99.90;;;;;;5009929;28;19929;-69
2023/10/23 11:15:17;;;;;;;;;;;14.10;99.90;;;;;;5008725;28;20311;-69
2023/10/23 11:17:44;;;;;;;;;;;14.10;99.90;;;;;;5008677;28;19979;-69
2023/10/23 11:20:12;;;;;;;;;;;14.10;99.90;;;;;;5009287;28;20015;-69
2023/10/23 11:22:41;;;;;;;;;;;14.20;99.90;;;;;;5008742;28;19941;-69
2023/10/23 11:25:09;;;;;;;;;;;14.30;99.90;;;;;;5009271;28;19937;-68
2023/10/23 11:27:35;;;;;;;;;;;14.10;99.90;;;;;;5008509;28;19933;-68
2023/10/23 11:30:03;;;;;;;;;;;14.00;99.90;;;;;;5008772;28;19940;-68
2023/10/23 11:32:30;;;;;;;;;;;14.00;99.90;;;;;;5008627;28;20267;-69
2023/10/23 11:35:00;;;;;;;;;;;13.90;99.90;;;;;;5008692;28;20339;-69
2023/10/23 11:37:26;;;;;;;;;;;13.80;99.90;;;;;;5008465;28;19940;-69
2023/10/23 11:39:56;;;;;;;;;;;13.90;99.90;;;;;;5009010;28;20578;-69
2023/10/23 11:42:23;;;;;;;;;;;13.90;99.90;;;;;;5008877;28;19934;-69
2023/10/23 11:44:49;;;;;;;;;;;14.00;99.90;;;;;;5008472;28;20004;-69
2023/10/23 11:47:16;;;;;;;;;;;14.10;99.90;;;;;;5008105;28;19934;-70
2023/10/23 11:49:48;;;;;;;;;;;14.10;99.90;;;;;;5008635;28;19952;-70
2023/10/23 11:52:14;;;;;;;;;;;14.10;99.90;;;;;;5009323;28;19933;-69
2023/10/23 11:54:41;;;;;;;;;;;14.10;99.90;;;;;;5008442;28;19979;-69
2023/10/23 11:57:09;;;;;;;;;;;14.10;99.90;;;;;;5008182;28;20404;-69
2023/10/23 11:59:39;;;;;;;;;;;14.10;99.90;;;;;;5008480;28;19971;-69
2023/10/23 12:02:06;;;;;;;;;;;14.10;99.90;;;;;;5008559;28;19937;-70
2023/10/23 12:04:35;;;;;;;;;;;14.20;99.90;;;;;;5008093;28;20035;-69
2023/10/23 12:07:03;;;;;;;;;;;14.20;99.90;;;;;;5007785;28;19930;-69
2023/10/23 12:09:30;;;;;;;;;;;14.20;99.90;;;;;;5008468;28;19976;-69
2023/10/23 12:11:56;;;;;;;;;;;14.30;99.90;;;;;;5008412;28;19929;-69
2023/10/23 12:14:24;;;;;;;;;;;14.20;99.90;;;;;;5008443;28;19925;-68
2023/10/23 12:16:51;;;;;;;;;;;14.10;99.90;;;;;;5007086;28;19937;-70
2023/10/23 12:19:17;;;;;;;;;;;14.10;99.90;;;;;;5007854;28;20383;-69
2023/10/23 12:21:43;;;;;;;;;;;14.20;99.90;;;;;;5007826;28;19941;-70
2023/10/23 12:24:10;;;;;;;;;;;14.10;99.90;;;;;;5008687;28;19926;-69
2023/10/23 12:26:36;;;;;;;;;;;14.20;99.90;;;;;;5008109;28;19933;-69
2023/10/23 12:29:05;;;;;;;;;;;14.30;99.90;;;;;;5008245;28;19925;-69
2023/10/23 12:31:32;;;;;;;;;;;14.40;99.90;;;;;;5007385;28;19984;-69
2023/10/23 12:33:59;;;;;;;;;;;14.40;99.90;;;;;;5008331;28;19944;-69
2023/10/23 12:36:25;;;;;;;;;;;14.40;99.90;;;;;;5007852;28;19988;-68
2023/10/23 12:38:52;;;;;;;;;;;14.40;99.90;;;;;;5007779;28;19925;-69
2023/10/23 12:41:19;;;;;;;;;;;14.50;99.90;;;;;;5007716;28;19988;-69
2023/10/23 12:43:47;;;;;;;;;;;14.60;99.90;;;;;;5007358;28;19933;-69
2023/10/23 12:46:13;;;;;;;;;;;14.70;99.90;;;;;;5007001;28;19929;-69
2023/10/23 12:48:43;;;;;;;;;;;14.70;99.90;;;;;;5007759;28;20427;-69
2023/10/23 12:51:10;;;;;;;;;;;14.70;99.90;;;;;;5008132;28;19926;-70
2023/10/23 12:53:37;;;;;;;;;;;14.90;99.90;;;;;;5008016;28;20391;-69
2023/10/23 12:56:04;;;;;;;;;;;15.10;99.90;;;;;;5007261;28;19937;-69
2023/10/23 12:58:30;;;;;;;;;;;15.20;99.90;;;;;;5006991;28;19972;-70
2023/10/23 13:00:57;;;;;;;;;;;15.30;99.90;;;;;;5007659;28;19973;-70
2023/10/23 13:03:23;;;;;;;;;;;15.30;99.90;;;;;;5008320;28;20004;-70
2023/10/23 13:05:51;;;;;;;;;;;15.20;99.90;;;;;;5007707;28;19968;-69
2023/10/23 13:08:18;;;;;;;;;;;15.10;99.90;;;;;;5007631;28;19942;-70
2023/10/23 13:10:45;;;;;;;;;;;15.10;99.90;;;;;;5007398;28;20015;-70
2023/10/23 13:13:11;;;;;;;;;;;15.10;99.90;;;;;;5007233;28;20303;-70
2023/10/23 13:15:38;;;;;;;;;;;15.00;99.90;;;;;;5006912;28;19933;-70
2023/10/23 13:18:04;;;;;;;;;;;15.00;99.90;;;;;;5006878;28;19992;-70
2023/10/23 13:20:31;;;;;;;;;;;14.80;99.90;;;;;;5007880;28;19975;-70
2023/10/23 13:22:58;;;;;;;;;;;14.70;99.90;;;;;;5008024;28;19937;-70
2023/10/23 13:25:25;;;;;;;;;;;14.60;99.90;;;;;;5007163;28;20350;-70
2023/10/23 13:27:52;;;;;;;;;;;14.50;99.90;;;;;;5006864;28;19934;-70
2023/10/23 13:30:18;;;;;;;;;;;14.40;99.90;;;;;;5007154;28;20277;-70
2023/10/23 13:32:45;;;;;;;;;;;14.40;99.90;;;;;;5007103;28;19937;-70
2023/10/23 13:35:14;;;;;;;;;;;14.30;99.90;;;;;;5007297;28;20024;-70
2023/10/23 13:37:41;;;;;;;;;;;14.40;99.90;;;;;;5006811;28;19933;-70
2023/10/23 13:40:09;;;;;;;;;;;14.30;99.90;;;;;;5007243;28;19925;-70
2023/10/23 13:42:36;;;;;;;;;;;14.30;99.90;;;;;;5006952;28;19980;-70
2023/10/23 13:45:02;;;;;;;;;;;14.30;99.90;;;;;;5007404;28;19934;-70
2023/10/23 13:47:29;;;;;;;;;;;14.30;99.90;;;;;;5005989;28;19926;-72
2023/10/23 13:49:58;;;;;;;;;;;14.30;99.90;;;;;;5008518;28;20384;-73
2023/10/23 13:52:24;;;;;;;;;;;14.30;99.90;;;;;;5010727;28;19940;-70
2023/10/23 13:54:52;;;;;;;;;;;14.30;99.90;;;;;;5010403;28;20445;-70
2023/10/23 13:57:19;;;;;;;;;;;14.20;99.90;;;;;;5010412;28;19933;-70
2023/10/23 13:59:46;;;;;;;;;;;14.20;99.90;;;;;;5010461;28;20400;-70
2023/10/23 14:02:13;;;;;;;;;;;14.20;99.90;;;;;;5010266;28;19940;-70
2023/10/23 14:04:40;;;;;;;;;;;14.20;99.90;;;;;;5010601;28;19979;-70
2023/10/23 14:07:06;;;;;;;;;;;14.20;99.90;;;;;;5010217;28;20008;-70
2023/10/23 14:09:33;;;;;;;;;;;14.20;99.90;;;;;;5010094;28;19949;-70
2023/10/23 14:11:59;;;;;;;;;;;14.20;99.90;;;;;;5010525;28;19925;-70
2023/10/23 14:14:28;;;;;;;;;;;14.20;99.90;;;;;;5010738;28;19930;-70
2023/10/23 14:16:54;;;;;;;;;;;14.20;99.90;;;;;;5010124;28;20071;-70
2023/10/23 14:19:21;;;;;;;;;;;14.20;99.90;;;;;;5009874;28;20007;-70
2023/10/23 14:21:47;;;;;;;;;;;14.20;99.90;;;;;;5009914;28;20354;-70